• Join FlightAware (Why Join?)
  • Login
  • US Flag 
06:46AM EDT


 

Airport Tracker/Info


-or-


 

Live Flight TrackerFlight Track Log ✈ FLG3957 ✈ 15-Jul-2012 ✈ KTYS - KDTW

Flight Track Log - Related Links

Times and Time Zones

All times are in EDT time to prevent confusion due to time zone crossing. See the FLG3957 flight status page for this flight to view local times or setup timezone preferences in your user account.

Time Position Orientation Groundspeed Altitude Reporting Facility
EDT Latitude Longitude Course Direction KTS MPH feet Rate Location/Type
07:46AM 35.9142 -83.8925 28° Northeast 217 250 4,500  Level Atlanta Center
07:47AM 35.9831 -83.8464 25° Northeast 244 281 6,500 2,280 Climbing Atlanta Center
07:48AM 36.0539 -83.8050 27° Northeast 267 307 9,100 1,980 Climbing Atlanta Center
07:49AM 36.1308 -83.7558 27° Northeast 287 330 10,500 1,080 Climbing Atlanta Center
07:50AM 36.2183 -83.7017 28° Northeast 315 362 11,300 1,440 Climbing Atlanta Center
07:52AM 36.3992 -83.5828 27° Northeast 358 412 14,900 1,500 Climbing Indianapolis Center
07:53AM 36.4931 -83.5233 26° Northeast 363 418 15,900 960 Climbing Indianapolis Center
07:54AM 36.5889 -83.4639 28° Northeast 368 423 16,900 900 Climbing Indianapolis Center
07:55AM 36.6869 -83.3989 26° Northeast 386 444 17,800 900 Climbing Indianapolis Center
07:56AM 36.7869 -83.3367 27° Northeast 392 451 18,800 900 Climbing Indianapolis Center
07:57AM 36.8972 -83.2661 27° Northeast 392 451 19,700 840 Climbing Indianapolis Center
07:58AM 36.9994 -83.2008 28° Northeast 398 458 20,500 780 Climbing Indianapolis Center
07:59AM 37.1033 -83.1325 27° Northeast 409 471 21,300 780 Climbing Indianapolis Center
08:00AM 37.2075 -83.0667 28° Northeast 409 471 22,100 780 Climbing Indianapolis Center
08:01AM 37.3094 -82.9983 27° Northeast 402 463 22,900 600 Climbing Indianapolis Center
08:02AM 37.4156 -82.9294 28° Northeast 408 470 23,400 480 Climbing Indianapolis Center
08:03AM 37.5172 -82.8606 28° Northeast 408 470 23,900 480 Climbing Indianapolis Center
08:04AM 37.6253 -82.7886 27° Northeast 413 475 24,400 540 Climbing Indianapolis Center
08:05AM 37.7333 -82.7192 29° Northeast 427 491 25,000 540 Climbing Indianapolis Center
08:06AM 37.8369 -82.6472 27° Northeast 427 491 25,500 480 Climbing Indianapolis Center
08:07AM 37.9469 -82.5747 28° Northeast 427 491 26,000 480 Climbing Indianapolis Center
08:08AM 38.0569 -82.5019 29° Northeast 427 491 26,500 420 Climbing Indianapolis Center
08:09AM 38.1503 -82.4372 27° Northeast 427 491 26,900 420 Climbing Indianapolis Center
08:10AM 38.2600 -82.3667 28° Northeast 427 491 27,400 480 Climbing Indianapolis Center
08:11AM 38.3678 -82.2936 28° Northeast 427 491 27,900 480 Climbing Indianapolis Center
08:12AM 38.4753 -82.2200 28° Northeast 427 491 28,400 540 Climbing Indianapolis Center
08:13AM 38.5808 -82.1492 28° Northeast 427 491 29,000 540 Climbing Indianapolis Center
08:14AM 38.6906 -82.0750 15° North 427 491 29,500 480 Climbing Indianapolis Center
08:15AM 38.8131 -82.0325 351° North 427 491 30,000 240 Climbing Indianapolis Center
08:16AM 38.9303 -82.0567 353° North 410 472 30,000  Level Indianapolis Center
08:17AM 39.0514 -82.0756 353° North 416 479 30,000  Level Indianapolis Center
08:18AM 39.1725 -82.0944 353° North 430 495 30,000  Level Indianapolis Center
08:19AM 39.2936 -82.1136 353° North 430 495 30,000  Level Indianapolis Center
08:20AM 39.4192 -82.1325 353° North 435 501 30,000  Level Indianapolis Center
08:21AM 39.5278 -82.1492 353° North 435 501 30,000  Level Indianapolis Center
08:22AM 39.6592 -82.1708 353° North 440 506 30,000  Level Indianapolis Center
08:23AM 39.7867 -82.1900 353° North 447 514 30,000  Level Indianapolis Center
08:24AM 39.9100 -82.2092 353° North 452 520 30,000  Level Indianapolis Center
08:25AM 40.0353 -82.2286 352° North 446 513 30,000  Level Indianapolis Center
08:27AM 40.2589 -82.2672 353° North 475 547 30,000  Level Cleveland Center
08:28AM 40.3961 -82.2897 351° North 468 539 30,000  Level Cleveland Center
08:29AM 40.5231 -82.3147 347° North 462 532 30,000  Level Cleveland Center
08:30AM 40.6456 -82.3508 348° North 457 526 30,000  Level Cleveland Center
08:31AM 40.7719 -82.3872 347° North 457 526 30,000 -420 Level Cleveland Center
08:32AM 40.8944 -82.4236 347° North 457 526 29,200 -1,320 Descending Cleveland Center
08:33AM 41.0064 -82.4569 347° North 451 519 27,400 -1,800 Descending Cleveland Center
08:34AM 41.1247 -82.4933 347° North 445 512 25,600 -2,100 Descending Cleveland Center
08:35AM 41.2431 -82.5300 323° Northwest 435 501 23,300 -2,280 Descending Cleveland Center
08:36AM 41.3311 -82.6183 318° Northwest 398 458 21,100 -2,280 Descending Cleveland Center
08:37AM 41.4106 -82.7122 319° Northwest 392 451 18,800 -2,100 Descending Cleveland Center
08:38AM 41.4942 -82.8092 321° Northwest 376 433 17,000 -1,920 Descending Cleveland Center
08:39AM 41.5678 -82.8894 318° Northwest 355 409 15,000 -2,040 Descending Cleveland Center
08:40AM 41.6328 -82.9669 318° Northwest 343 395 13,300 -1,500 Descending Cleveland Center
08:41AM 41.7019 -83.0500 328° Northwest 338 389 12,000 -660 Descending Cleveland Center
08:42AM 41.7797 -83.1144 330° Northwest 346 398 12,000  Level Cleveland Center
08:43AM 41.8842 -83.1967 333° Northwest 347 399 12,000 -60 Level Cleveland Center
08:44AM 41.9542 -83.2442 329° Northwest 335 386 11,900 -540 Descending Cleveland Center
08:45AM 42.0256 -83.3031 360° North 246 283 11,000 -420 Descending Cleveland Center
08:46AM 42.0903 -83.3031 29° Northeast 258 297 11,000  Level Cleveland Center
08:47AM 42.1369 -83.2686 28° Northeast 228 262 11,000 -480 Level Cleveland Center
08:48AM 42.2028 -83.2208 26° Northeast 244 281 10,200 -1,560 Descending Cleveland Center
08:49AM 42.2706 -83.1758 30° Northeast 255 293 8,000 -2,100 Descending Cleveland Center
08:50AM 42.3342 -83.1253 318° Northwest 257 296 6,000 -1,500 Descending Cleveland Center
08:51AM 42.3728 -83.1717 245° Southwest 202 232 5,000 -780 Descending Cleveland Center
08:52AM 42.3525 -83.2300 215° Southwest 174 200 4,400 -1,020 Descending Cleveland Center
08:53AM 42.3122 -83.2675 210° Southwest 172 198 2,900 -1,200 Descending Cleveland Center
08:55AM 42.2717 -83.2994 206° Southwest 144 166 1,900 -840 Descending Cleveland Center
08:56AM 42.2400 -83.3206 206° Southwest 140 161 1,200 -780 Descending Cleveland Center